Mantee, Mississippi
Current Conditions -  °F | °C
As of 7:35 PM on Tuesday 25 Nov 2014 (Local Time) from KSTF Reporting Station
Clear Clear  
Wind Chill: 43°   Ceiling: Unl
Heat Index: 43°   Visibility: NA
Dew Point: 32°   Wind: 0mph
Humidity: 66%   Direction: NA
Pressure: 30.2"   Gusts: NA
Location:  33.73°N, 89.06°W
Report Text: KSTF 260135Z AUTO 00000KT CLR 06/00 A3020 RMK AO2 PWINO
Loading
Personal Weather Stations






























Interactive Weather Map New forecast layout! Learn more

10-Day Weather Forecast

Advertisements
Track Severe Weather on mobile